createdAt,value
2018-06-29T00:01:47.535Z,101124.53
2018-06-29T00:04:50.901Z,101123.77
2018-06-29T00:07:54.238Z,101127.64
2018-06-29T00:10:57.443Z,101113.77
2018-06-29T00:14:00.677Z,101117.42
2018-06-29T00:17:03.899Z,101110.84
2018-06-29T00:20:07.075Z,101123.22
2018-06-29T00:23:10.393Z,101116.83
2018-06-29T00:26:13.595Z,101115.11
2018-06-29T00:29:17.038Z,101118.30
2018-06-29T00:32:20.074Z,101118.05
2018-06-29T00:35:23.194Z,101119.88
2018-06-29T00:38:26.398Z,101106.09
2018-06-29T00:41:29.604Z,101120.16
2018-06-29T00:44:32.817Z,101130.94
2018-06-29T00:47:35.981Z,101125.55
2018-06-29T00:50:39.157Z,101124.09
2018-06-29T00:53:42.354Z,101128.36
2018-06-29T00:56:45.495Z,101131.86
2018-06-29T00:59:48.651Z,101135.25
2018-06-29T01:02:51.846Z,101139.20
2018-06-29T01:05:55.010Z,101132.31
2018-06-29T01:08:58.342Z,101125.52
2018-06-29T01:12:01.526Z,101117.73
2018-06-29T01:15:04.843Z,101124.75
2018-06-29T01:18:08.235Z,101123.06
2018-06-29T01:21:11.502Z,101117.06
2018-06-29T01:24:14.702Z,101116.93
2018-06-29T01:27:17.951Z,101104.91
2018-06-29T01:30:21.090Z,101103.64
2018-06-29T01:33:24.330Z,101109.55
2018-06-29T01:36:27.493Z,101116.31
2018-06-29T01:39:30.682Z,101124.39
2018-06-29T01:42:33.923Z,101117.47
2018-06-29T01:45:37.115Z,101118.47
2018-06-29T01:48:40.435Z,101112.16
2018-06-29T01:51:43.677Z,101118.00
2018-06-29T01:54:46.939Z,101107.98
2018-06-29T01:57:50.075Z,101115.69
2018-06-29T02:00:53.354Z,101116.09
2018-06-29T02:03:57.435Z,101109.07
2018-06-29T02:07:00.583Z,101101.41
2018-06-29T02:10:03.874Z,101103.06
2018-06-29T02:13:07.103Z,101101.41
2018-06-29T02:16:10.376Z,101097.60
2018-06-29T02:19:13.566Z,101104.16
2018-06-29T02:22:16.701Z,101082.80
2018-06-29T02:25:19.866Z,101102.50
2018-06-29T02:28:23.596Z,101085.13
2018-06-29T02:31:26.859Z,101094.13
2018-06-29T02:34:30.060Z,101092.09
2018-06-29T02:37:33.319Z,101089.82
2018-06-29T02:40:36.573Z,101091.19
2018-06-29T02:43:39.787Z,101091.89
2018-06-29T02:46:42.918Z,101088.37
2018-06-29T02:49:46.140Z,101090.72
2018-06-29T02:52:49.330Z,101093.97
2018-06-29T02:55:52.550Z,101084.25
2018-06-29T02:58:56.390Z,101082.64
2018-06-29T03:02:00.548Z,101070.13
2018-06-29T03:05:04.575Z,101069.16
2018-06-29T03:08:07.774Z,101068.36
2018-06-29T03:11:10.942Z,101068.86
2018-06-29T03:14:14.154Z,101072.19
2018-06-29T03:17:17.303Z,101058.49
2018-06-29T03:20:20.524Z,101055.61
2018-06-29T03:23:23.699Z,101052.56
2018-06-29T03:26:26.859Z,101056.02
2018-06-29T03:29:30.026Z,101048.70
2018-06-29T03:32:33.207Z,101049.94
2018-06-29T03:35:36.518Z,101048.77
2018-06-29T03:38:39.670Z,101039.72
2018-06-29T03:41:42.846Z,101041.34
2018-06-29T03:44:46.078Z,101034.59
2018-06-29T03:47:49.246Z,101033.89
2018-06-29T03:50:52.434Z,101032.66
2018-06-29T03:53:55.639Z,101030.70
2018-06-29T03:56:58.782Z,101031.91
2018-06-29T04:00:01.996Z,101031.14
2018-06-29T04:03:06.913Z,101027.10
2018-06-29T04:06:10.167Z,101027.23
2018-06-29T04:09:13.358Z,101029.09
2018-06-29T04:12:16.499Z,101020.81
2018-06-29T04:15:19.729Z,101018.31
2018-06-29T04:18:22.963Z,101025.14
2018-06-29T04:21:26.138Z,101021.94
2018-06-29T04:24:29.338Z,101014.64
2018-06-29T04:27:34.009Z,101018.98
2018-06-29T04:30:37.208Z,101013.24
2018-06-29T04:33:40.361Z,101014.77
2018-06-29T04:36:43.579Z,101024.41
2018-06-29T04:39:46.760Z,101020.08
2018-06-29T04:42:49.998Z,101022.61
2018-06-29T04:45:53.235Z,101016.64
2018-06-29T04:48:56.730Z,101012.00
2018-06-29T04:52:01.051Z,101008.11
2018-06-29T04:55:04.379Z,101012.48
2018-06-29T04:58:07.814Z,101022.27
2018-06-29T05:01:11.014Z,101014.45
2018-06-29T05:04:14.304Z,101015.73
2018-06-29T05:07:17.537Z,101017.77
2018-06-29T05:10:21.280Z,101021.13
2018-06-29T05:13:24.646Z,101016.14
2018-06-29T05:16:28.576Z,101023.32
2018-06-29T05:19:33.008Z,101015.93
2018-06-29T05:22:36.266Z,100995.61
2018-06-29T05:25:39.497Z,101008.71
2018-06-29T05:28:42.932Z,101010.27
2018-06-29T05:31:46.978Z,101009.36
2018-06-29T05:34:50.233Z,101004.30
2018-06-29T05:37:53.488Z,100999.27
2018-06-29T05:40:56.655Z,100991.04
2018-06-29T05:43:59.781Z,100974.57
2018-06-29T05:47:03.085Z,101001.58
2018-06-29T05:50:06.666Z,101002.69
2018-06-29T05:53:10.253Z,101005.27
2018-06-29T05:56:13.378Z,101002.98
2018-06-29T05:59:16.520Z,101001.27
2018-06-29T06:02:19.719Z,101006.56
2018-06-29T06:05:22.940Z,101002.23
2018-06-29T06:08:26.118Z,101002.67
2018-06-29T06:11:29.323Z,101008.57
2018-06-29T06:14:32.495Z,101012.27
2018-06-29T06:17:35.710Z,101019.77
2018-06-29T06:20:38.898Z,101015.11
2018-06-29T06:23:42.038Z,101022.05
2018-06-29T06:26:45.291Z,101011.69
2018-06-29T06:29:48.443Z,101014.39
2018-06-29T06:32:51.729Z,101011.83
2018-06-29T06:35:54.936Z,101010.75
2018-06-29T06:38:58.154Z,101015.92
2018-06-29T06:42:01.389Z,101017.67
2018-06-29T06:45:05.208Z,101016.08
2018-06-29T06:48:08.499Z,101013.05
2018-06-29T06:51:12.602Z,101011.02
2018-06-29T06:54:15.880Z,101006.02
2018-06-29T06:57:19.161Z,101008.58
2018-06-29T07:00:22.348Z,101002.78
2018-06-29T07:03:25.619Z,101005.08
2018-06-29T07:06:28.965Z,100994.70
2018-06-29T07:09:32.171Z,100998.16
2018-06-29T07:12:35.495Z,100999.83
2018-06-29T07:15:38.716Z,101003.09
2018-06-29T07:18:41.925Z,100989.58
2018-06-29T07:21:45.249Z,100995.77
2018-06-29T07:24:48.540Z,100987.29
2018-06-29T07:27:51.832Z,100992.21
2018-06-29T07:30:55.306Z,100991.72
2018-06-29T07:33:58.694Z,100992.38
2018-06-29T07:37:02.574Z,100984.56
2018-06-29T07:40:06.391Z,100981.34
2018-06-29T07:43:10.231Z,100981.69
2018-06-29T07:46:14.598Z,100983.59
2018-06-29T07:49:18.409Z,100975.06
2018-06-29T07:52:21.992Z,100967.39
2018-06-29T07:55:25.969Z,100960.59
2018-06-29T07:58:29.313Z,100960.58
2018-06-29T08:01:32.838Z,100955.28
2018-06-29T08:04:36.464Z,100963.08
2018-06-29T08:07:39.908Z,100955.20
2018-06-29T08:10:43.415Z,100958.75
2018-06-29T08:13:46.815Z,100955.65
2018-06-29T08:16:51.120Z,100948.60
2018-06-29T08:19:54.550Z,100945.00
2018-06-29T08:22:58.182Z,100946.41
2018-06-29T08:26:13.773Z,100938.52
2018-06-29T08:29:18.478Z,100939.63
2018-06-29T08:32:21.951Z,100943.54
2018-06-29T08:35:25.623Z,100942.72
2018-06-29T08:38:30.424Z,100935.92
2018-06-29T08:41:33.969Z,100932.77
2018-06-29T08:44:37.444Z,100923.98
2018-06-29T08:47:40.693Z,100921.09
2018-06-29T08:50:43.967Z,100931.73
2018-06-29T08:53:47.243Z,100926.41
2018-06-29T08:56:50.494Z,100912.89
2018-06-29T08:59:53.650Z,100922.63
2018-06-29T09:02:56.879Z,100916.11
2018-06-29T09:06:00.154Z,100915.64
2018-06-29T09:09:03.605Z,100906.70
2018-06-29T09:12:07.215Z,100909.77
2018-06-29T09:15:10.454Z,100911.59
2018-06-29T09:18:13.675Z,100908.41
2018-06-29T09:21:16.900Z,100887.25
2018-06-29T09:24:20.136Z,100896.27
2018-06-29T09:27:23.392Z,100892.44
2018-06-29T09:30:26.906Z,100890.59
2018-06-29T09:33:30.270Z,100882.98
2018-06-29T09:36:33.571Z,100878.94
2018-06-29T09:39:36.892Z,100882.44
2018-06-29T09:42:40.170Z,100893.28
2018-06-29T09:45:44.687Z,100879.80
2018-06-29T09:48:47.920Z,100875.14
2018-06-29T09:51:51.200Z,100872.70
2018-06-29T09:54:54.580Z,100880.72
2018-06-29T09:57:57.789Z,100870.66
2018-06-29T10:01:01.008Z,100874.09
2018-06-29T10:04:04.397Z,100868.44
2018-06-29T10:07:07.704Z,100862.45
2018-06-29T10:10:10.923Z,100859.55
2018-06-29T10:13:14.193Z,100867.92
2018-06-29T10:16:17.379Z,100853.53
2018-06-29T10:19:20.637Z,100857.80
2018-06-29T10:22:23.877Z,100848.94
2018-06-29T10:25:27.202Z,100856.20
2018-06-29T10:28:31.053Z,100842.92
2018-06-29T10:31:34.477Z,100836.40
2018-06-29T10:34:38.128Z,100830.78
2018-06-29T10:37:41.658Z,100825.12
2018-06-29T10:40:45.101Z,100824.35
2018-06-29T10:43:48.541Z,100828.16
2018-06-29T10:46:51.735Z,100825.97
2018-06-29T10:49:55.029Z,100817.42
2018-06-29T10:52:58.346Z,100819.66
2018-06-29T10:56:01.725Z,100813.53
2018-06-29T10:59:05.017Z,100805.52
2018-06-29T11:02:08.408Z,100804.77
2018-06-29T11:05:11.881Z,100809.94
2018-06-29T11:08:15.324Z,100799.91
2018-06-29T11:11:19.413Z,100791.48
2018-06-29T11:14:23.287Z,100794.38
2018-06-29T11:17:26.688Z,100792.03
2018-06-29T11:20:29.950Z,100793.17
2018-06-29T11:23:33.428Z,100789.09
2018-06-29T11:26:36.790Z,100790.22
2018-06-29T11:29:40.228Z,100778.73
2018-06-29T11:32:43.467Z,100783.57
2018-06-29T11:35:46.776Z,100775.86
2018-06-29T11:38:50.083Z,100768.05
2018-06-29T11:41:53.455Z,100769.02
2018-06-29T11:44:56.936Z,100766.98
2018-06-29T11:48:00.182Z,100768.84
2018-06-29T11:51:03.538Z,100760.36
2018-06-29T11:54:07.335Z,100759.82
2018-06-29T11:57:10.720Z,100747.30
2018-06-29T12:00:14.756Z,100751.81
2018-06-29T12:03:18.108Z,100737.71
2018-06-29T12:06:21.463Z,100738.92
2018-06-29T12:09:24.802Z,100750.56
2018-06-29T12:12:28.877Z,100754.27
2018-06-29T12:15:32.254Z,100743.66
2018-06-29T12:18:35.837Z,100735.84
2018-06-29T12:21:40.263Z,100732.06
2018-06-29T12:24:44.542Z,100734.51
2018-06-29T12:27:48.373Z,100731.47
2018-06-29T12:30:54.610Z,100729.46
2018-06-29T12:33:58.131Z,100714.67
2018-06-29T12:37:01.369Z,100717.90
2018-06-29T12:40:04.787Z,100716.17
2018-06-29T12:43:08.666Z,100708.97
2018-06-29T12:46:13.160Z,100713.86
2018-06-29T12:49:23.142Z,100687.55
2018-06-29T12:52:26.583Z,100692.34
2018-06-29T12:55:29.929Z,100691.30
2018-06-29T12:58:33.352Z,100687.27
2018-06-29T13:01:36.724Z,100684.27
2018-06-29T13:04:40.201Z,100692.66
2018-06-29T13:07:43.484Z,100685.34
2018-06-29T13:10:49.043Z,100687.56
2018-06-29T13:14:27.476Z,100684.09
2018-06-29T13:17:31.118Z,100680.54
2018-06-29T13:20:46.372Z,100676.67
2018-06-29T13:24:05.996Z,100666.56
2018-06-29T13:27:24.437Z,100668.20
2018-06-29T13:30:34.507Z,100663.53
2018-06-29T13:33:38.050Z,100661.76
2018-06-29T13:36:41.307Z,100658.58
2018-06-29T13:43:32.078Z,100660.68
2018-06-29T13:46:48.150Z,100654.02
2018-06-29T13:50:03.131Z,100652.73
2018-06-29T13:57:27.965Z,100651.67
2018-06-29T14:00:39.143Z,100654.40
2018-06-29T14:10:35.409Z,100657.66
2018-06-29T14:14:19.089Z,100653.70
2018-06-29T14:17:36.029Z,100651.20
2018-06-29T14:24:10.288Z,100657.23
2018-06-29T14:27:37.285Z,100653.29
2018-06-29T14:31:05.987Z,100653.02
2018-06-29T14:36:38.669Z,100651.09
2018-06-29T14:40:15.175Z,100647.43
2018-06-29T14:43:41.238Z,100647.86
2018-06-29T14:50:06.997Z,100648.47
2018-06-29T14:53:18.399Z,100638.85
2018-06-29T14:56:24.810Z,100648.62
2018-06-29T15:00:03.404Z,100645.41
2018-06-29T15:03:06.815Z,100653.28
2018-06-29T15:06:10.264Z,100647.89
2018-06-29T15:09:13.585Z,100643.84
2018-06-29T15:12:16.930Z,100637.91
2018-06-29T15:15:20.324Z,100645.42
2018-06-29T15:18:23.851Z,100640.02
2018-06-29T15:21:27.285Z,100643.50
2018-06-29T15:24:30.962Z,100653.13
2018-06-29T15:27:34.866Z,100654.86
2018-06-29T15:30:38.552Z,100663.52
2018-06-29T15:33:42.032Z,100673.00
2018-06-29T15:36:45.523Z,100689.40
2018-06-29T15:39:49.266Z,100696.36
2018-06-29T15:42:53.916Z,100703.08
2018-06-29T15:45:57.558Z,100715.73
2018-06-29T15:49:00.995Z,100716.99
2018-06-29T15:52:06.194Z,100719.53
2018-06-29T15:55:09.795Z,100716.66
2018-06-29T15:58:15.558Z,100713.30
2018-06-29T16:01:18.863Z,100720.16
2018-06-29T16:04:22.242Z,100722.75
2018-06-29T16:07:25.716Z,100722.72
2018-06-29T16:10:29.063Z,100720.44
2018-06-29T16:13:32.360Z,100728.33
2018-06-29T16:16:35.902Z,100735.70
2018-06-29T16:19:40.054Z,100728.91
2018-06-29T16:22:43.457Z,100734.11
2018-06-29T16:25:46.812Z,100743.02
2018-06-29T16:28:50.255Z,100745.11
2018-06-29T16:31:53.552Z,100735.10
2018-06-29T16:34:57.723Z,100742.69
2018-06-29T16:38:01.250Z,100751.73
2018-06-29T16:41:04.753Z,100747.39
2018-06-29T16:44:08.271Z,100745.10
2018-06-29T16:47:11.930Z,100759.56
2018-06-29T16:50:15.753Z,100760.38
2018-06-29T16:53:19.254Z,100762.88
2018-06-29T16:56:22.700Z,100763.18
2018-06-29T16:59:26.318Z,100757.91
2018-06-29T17:02:29.851Z,100764.81
2018-06-29T17:05:33.488Z,100762.69
2018-06-29T17:08:37.105Z,100759.43
2018-06-29T17:11:40.514Z,100768.31
2018-06-29T17:14:43.981Z,100768.66
2018-06-29T17:17:47.752Z,100775.38
2018-06-29T17:20:51.328Z,100775.64
2018-06-29T17:23:54.775Z,100786.25
2018-06-29T17:26:58.468Z,100785.92
2018-06-29T17:30:01.919Z,100783.84
2018-06-29T17:33:05.491Z,100787.64
2018-06-29T17:36:08.870Z,100787.16
2018-06-29T17:39:12.891Z,100784.17
2018-06-29T17:42:16.754Z,100785.05
2018-06-29T17:45:20.494Z,100781.23
2018-06-29T17:48:24.540Z,100787.52
2018-06-29T17:51:28.740Z,100793.41
2018-06-29T17:54:32.536Z,100796.81
2018-06-29T17:57:36.125Z,100801.86
2018-06-29T18:00:39.822Z,100803.66
2018-06-29T18:03:48.917Z,100795.05
2018-06-29T18:06:52.678Z,100801.69
2018-06-29T18:09:56.601Z,100801.56
2018-06-29T18:13:01.265Z,100808.84
2018-06-29T18:16:07.652Z,100808.48
2018-06-29T18:19:17.864Z,100810.55
2018-06-29T18:22:21.889Z,100811.88
2018-06-29T18:25:25.650Z,100815.52
2018-06-29T18:28:29.176Z,100821.45
2018-06-29T18:31:33.472Z,100818.22
2018-06-29T18:34:37.587Z,100818.61
2018-06-29T18:37:41.159Z,100824.86
2018-06-29T18:40:44.979Z,100826.92
2018-06-29T18:43:48.774Z,100828.10
2018-06-29T18:46:52.722Z,100831.87
2018-06-29T18:49:56.531Z,100833.58
2018-06-29T18:53:01.132Z,100837.80
2018-06-29T18:56:05.536Z,100840.87
2018-06-29T18:59:09.244Z,100841.38
2018-06-29T19:02:12.869Z,100841.67
2018-06-29T19:05:16.664Z,100849.28
2018-06-29T19:08:20.384Z,100852.03
2018-06-29T19:11:24.496Z,100855.77
2018-06-29T19:14:28.493Z,100857.97
2018-06-29T19:17:32.452Z,100865.63
2018-06-29T19:20:36.101Z,100867.63
2018-06-29T19:23:39.854Z,100875.95
2018-06-29T19:26:43.454Z,100880.91
2018-06-29T19:29:47.270Z,100876.29
2018-06-29T19:32:51.096Z,100883.59
2018-06-29T19:35:54.629Z,100883.44
2018-06-29T19:38:58.305Z,100882.20
2018-06-29T19:42:01.994Z,100879.00
2018-06-29T19:45:05.671Z,100890.68
2018-06-29T19:48:09.209Z,100899.84
2018-06-29T19:51:12.841Z,100899.70
2018-06-29T19:54:16.813Z,100906.77
2018-06-29T19:57:21.011Z,100912.75
2018-06-29T20:00:24.406Z,100910.72
2018-06-29T20:03:28.001Z,100917.80
2018-06-29T20:06:31.368Z,100926.83
2018-06-29T20:09:35.085Z,100922.39
2018-06-29T20:12:38.781Z,100926.33
2018-06-29T20:15:42.117Z,100928.56
2018-06-29T20:18:45.805Z,100933.20
2018-06-29T20:21:49.559Z,100938.43
2018-06-29T20:24:52.969Z,100936.54
2018-06-29T20:27:56.557Z,100944.04
2018-06-29T20:30:59.979Z,100949.25
2018-06-29T20:34:03.473Z,100958.77
2018-06-29T20:37:07.207Z,100958.16
2018-06-29T20:40:11.289Z,100963.32
2018-06-29T20:43:16.257Z,100964.77
2018-06-29T20:46:19.852Z,100958.39
2018-06-29T20:49:24.232Z,100969.60
2018-06-29T20:52:27.751Z,100968.09
2018-06-29T20:55:31.233Z,100977.70
2018-06-29T20:58:34.967Z,100989.45
2018-06-29T21:01:38.430Z,100979.72
2018-06-29T21:04:41.969Z,100991.45
2018-06-29T21:07:45.404Z,100999.91
2018-06-29T21:10:48.993Z,101004.97
2018-06-29T21:13:54.733Z,101001.77
2018-06-29T21:16:59.801Z,101002.49
2018-06-29T21:20:03.259Z,101007.02
2018-06-29T21:23:07.325Z,101007.47
2018-06-29T21:26:11.289Z,101008.38
2018-06-29T21:29:14.692Z,101019.25
2018-06-29T21:32:18.083Z,101017.10
2018-06-29T21:35:21.720Z,101025.11
2018-06-29T21:38:25.306Z,101028.41
2018-06-29T21:41:28.679Z,101037.19
2018-06-29T21:44:32.096Z,101042.52
2018-06-29T21:47:35.778Z,101037.03
2018-06-29T21:50:39.235Z,101041.77
2018-06-29T21:53:42.609Z,101051.51
2018-06-29T21:56:46.011Z,101058.81
2018-06-29T21:59:49.300Z,101059.97
2018-06-29T22:02:52.711Z,101063.79
2018-06-29T22:05:56.144Z,101070.69
2018-06-29T22:08:59.586Z,101076.14
2018-06-29T22:12:02.916Z,101067.52
2018-06-29T22:15:10.600Z,101069.09
2018-06-29T22:18:13.825Z,101075.92
2018-06-29T22:21:17.171Z,101081.34
2018-06-29T22:24:20.472Z,101084.29
2018-06-29T22:27:23.736Z,101087.51
2018-06-29T22:30:27.027Z,101087.48
2018-06-29T22:33:30.357Z,101086.72
2018-06-29T22:36:33.633Z,101089.70
2018-06-29T22:39:36.995Z,101091.97
2018-06-29T22:42:40.192Z,101094.91
2018-06-29T22:45:43.464Z,101104.76
2018-06-29T22:48:46.745Z,101096.89
2018-06-29T22:51:50.035Z,101100.34
2018-06-29T22:54:53.366Z,101103.64
2018-06-29T22:57:56.613Z,101108.73
2018-06-29T23:00:59.953Z,101111.37
2018-06-29T23:04:03.179Z,101119.91
2018-06-29T23:07:06.390Z,101121.44
2018-06-29T23:10:09.780Z,101130.73
2018-06-29T23:13:12.992Z,101132.02
2018-06-29T23:16:16.536Z,101125.30
2018-06-29T23:19:19.794Z,101135.47
2018-06-29T23:22:22.980Z,101130.95
2018-06-29T23:25:26.154Z,101136.34
2018-06-29T23:28:29.749Z,101138.16
2018-06-29T23:31:32.946Z,101135.70
2018-06-29T23:34:47.206Z,101144.88
2018-06-29T23:37:54.533Z,101152.72
2018-06-29T23:41:06.498Z,101150.53
2018-06-29T23:44:29.962Z,101154.81
2018-06-29T23:47:35.119Z,101153.82
2018-06-29T23:50:42.928Z,101153.70
2018-06-29T23:53:48.268Z,101161.89
2018-06-29T23:56:51.511Z,101158.21
2018-06-29T23:59:55.295Z,101154.66
